KCDN/CDN METAR and TAF weather

Enter ICAO airport designator
Station Type Date Time Source
KCDN METAR 2019/05/20 10:35 UTC NOAA

KCDN 201035Z AUTO VRB05KT 6SM BR BKN004 OVC015 21/21 A3004 RMK AO2


Station Type Date Time Source
KCDN Decoded METAR 2019/05/20 10:35 UTC NOAA

Station name not available
May 20, 2019 - 06:35 AM EDT / 2019.05.20 1035 UTC
Wind: Variable at 6 MPH (5 KT):0
Visibility: 6 mile(s):0
Sky conditions: overcast
Weather: mist
Temperature: 69 F (21 C)
Dew Point: 69 F (21 C)
Relative Humidity: 100%
Pressure (altimeter): 30.04 in. Hg (1017 hPa)
ob: KCDN 201035Z AUTO VRB05KT 6SM BR BKN004 OVC015 21/21 A3004 RMK AO2
cycle: 10

Station Type Date Time Source
KCDN TAF UTC NOAA

Error!

Example: see airport list